This is the latest recevied weather packets stored in our database for station/object KG5MMT-15. If no packets are shown the sender has not sent any weather packets the latest 1 day(s).
| Time | Temp. | Humidity | Pressure | Rain* | Wind** | Luminosity | Snow |
|---|---|---|---|---|---|---|---|
| 1778027536 | 12.78° C | 46% | 0 hPa | 0 mm | 3.13 m/s, 358° | - | - |
| 1778027236 | 13.33° C | 48% | 0 hPa | 0 mm | 0.89 m/s, 285° | - | - |
| 1778026936 | 12.78° C | 48% | 0 hPa | 0 mm | 1.79 m/s, 327° | - | - |
| 1778026636 | 13.33° C | 49% | 0 hPa | 0 mm | 1.34 m/s, 244° | - | - |
| 1778026336 | 13.33° C | 50% | 0 hPa | 0 mm | 1.79 m/s, 350° | - | - |
| 1778026036 | 13.33° C | 49% | 0 hPa | 0 mm | 2.68 m/s, 244° | - | - |
| 1778025736 | 12.78° C | 50% | 0 hPa | 0 mm | 2.24 m/s, 324° | - | - |
| 1778025436 | 12.78° C | 51% | 0 hPa | 0 mm | 2.24 m/s, 337° | - | - |
| 1778025136 | 12.78° C | 51% | 0 hPa | 0 mm | 1.34 m/s, 52° | - | - |
| 1778024836 | 12.78° C | 50% | 0 hPa | 0 mm | 2.68 m/s, 316° | - | - |
| 1778024536 | 13.33° C | 48% | 0 hPa | 0 mm | 2.68 m/s, 333° | - | - |
| 1778024236 | 13.89° C | 46% | 0 hPa | 0 mm | 0.45 m/s, 47° | - | - |
| 1778023936 | 14.44° C | 46% | 0 hPa | 0 mm | 1.79 m/s, 312° | - | - |
| 1778023636 | 13.89° C | 47% | 0 hPa | 0 mm | 2.24 m/s, 344° | - | - |
| 1778023336 | 13.33° C | 47% | 0 hPa | 0 mm | 2.24 m/s, 286° | - | - |
| 1778023036 | 13.33° C | 47% | 0 hPa | 0 mm | 3.13 m/s, 307° | - | - |
| 1778022736 | 13.89° C | 48% | 0 hPa | 0 mm | 0.45 m/s, 95° | - | - |
| 1778022436 | 13.33° C | 47% | 0 hPa | 0 mm | 2.68 m/s, 293° | - | - |
| 1778022136 | 13.89° C | 48% | 0 hPa | 0 mm | 1.79 m/s, 312° | - | - |
| 1778021836 | 13.33° C | 48% | 0 hPa | 0 mm | 2.68 m/s, 323° | - | - |
| 1778021536 | 13.89° C | 48% | 0 hPa | 0 mm | 0.89 m/s, 310° | - | - |
| 1778021236 | 13.89° C | 47% | 0 hPa | 0 mm | 1.79 m/s, 298° | - | - |
| 1778020936 | 14.44° C | 43% | 0 hPa | 0 mm | 4.02 m/s, 309° | - | - |
| 1778020636 | 15° C | 43% | 0 hPa | 0 mm | 2.24 m/s, 254° | - | - |
| 1778020336 | 14.44° C | 43% | 0 hPa | 0 mm | 2.24 m/s, 299° | - | - |
* Rain latest hour (hover to see other rain measurements)
** Current wind speed in m/s (hover to see current wind gust speed)